sensor_id;sensor_type;location;lat;lon;timestamp;P1;durP1;ratioP1;P2;durP2;ratioP2
66402;SDS011;53212;52.112;5.144;2022-07-29T17:29:14;5.30;;;2.10;;
66402;SDS011;53212;52.112;5.144;2022-07-29T17:31:41;3.20;;;2.40;;
66402;SDS011;53212;52.112;5.144;2022-07-29T17:34:07;4.60;;;1.60;;
66402;SDS011;53212;52.112;5.144;2022-07-29T17:36:45;4.10;;;1.50;;
66402;SDS011;53212;52.112;5.144;2022-07-29T17:39:26;3.50;;;1.70;;
66402;SDS011;53212;52.112;5.144;2022-07-29T17:41:52;5.40;;;1.90;;
66402;SDS011;53212;52.112;5.144;2022-07-29T17:44:20;2.60;;;1.70;;
66402;SDS011;53212;52.112;5.144;2022-07-29T17:46:48;5.50;;;1.70;;
66402;SDS011;53212;52.112;5.144;2022-07-29T17:55:24;4.60;;;1.70;;
66402;SDS011;53212;52.112;5.144;2022-07-29T17:57:55;7.20;;;1.50;;
66402;SDS011;53212;52.112;5.144;2022-07-29T18:00:23;1.90;;;1.40;;
66402;SDS011;53212;52.112;5.144;2022-07-29T18:40:16;5.60;;;2.00;;
66402;SDS011;53212;52.112;5.144;2022-07-29T18:58:21;7.00;;;2.40;;
66402;SDS011;53212;52.112;5.144;2022-07-29T19:32:02;6.00;;;2.50;;
66402;SDS011;53212;52.112;5.144;2022-07-29T20:01:15;9.00;;;2.60;;
66402;SDS011;53212;52.112;5.144;2022-07-29T20:37:41;4.40;;;2.80;;
66402;SDS011;53212;52.112;5.144;2022-07-29T20:40:50;5.30;;;2.50;;
66402;SDS011;53212;52.112;5.144;2022-07-29T20:47:11;6.30;;;3.10;;
66402;SDS011;53212;52.112;5.144;2022-07-29T20:53:55;6.10;;;3.20;;
66402;SDS011;53212;52.112;5.144;2022-07-29T21:00:29;8.10;;;3.60;;
66402;SDS011;53212;52.112;5.144;2022-07-29T21:03:19;6.30;;;3.50;;
66402;SDS011;53212;52.112;5.144;2022-07-29T21:06:05;9.50;;;3.70;;
66402;SDS011;53212;52.112;5.144;2022-07-29T21:23:54;6.60;;;3.00;;
66402;SDS011;53212;52.112;5.144;2022-07-29T21:26:20;10.00;;;3.30;;
66402;SDS011;53212;52.112;5.144;2022-07-29T21:33:00;5.30;;;3.10;;
66402;SDS011;53212;52.112;5.144;2022-07-29T21:39:08;8.00;;;3.30;;
66402;SDS011;53212;52.112;5.144;2022-07-29T21:45:17;12.00;;;3.10;;
66402;SDS011;53212;52.112;5.144;2022-07-29T21:51:23;10.80;;;3.30;;
66402;SDS011;53212;52.112;5.144;2022-07-29T21:57:29;10.60;;;3.70;;
66402;SDS011;53212;52.112;5.144;2022-07-29T21:59:55;10.90;;;3.70;;
66402;SDS011;53212;52.112;5.144;2022-07-29T22:02:21;6.90;;;3.30;;
66402;SDS011;53212;52.112;5.144;2022-07-29T22:08:30;7.40;;;3.20;;
66402;SDS011;53212;52.112;5.144;2022-07-29T22:21:42;6.10;;;3.20;;
66402;SDS011;53212;52.112;5.144;2022-07-29T22:24:08;8.10;;;3.30;;
66402;SDS011;53212;52.112;5.144;2022-07-29T22:26:34;9.80;;;3.30;;
66402;SDS011;53212;52.112;5.144;2022-07-29T22:29:00;8.30;;;2.90;;
66402;SDS011;53212;52.112;5.144;2022-07-29T22:31:26;7.90;;;3.00;;
66402;SDS011;53212;52.112;5.144;2022-07-29T22:33:51;10.90;;;3.10;;
66402;SDS011;53212;52.112;5.144;2022-07-29T22:36:18;9.90;;;3.10;;
66402;SDS011;53212;52.112;5.144;2022-07-29T22:38:46;8.70;;;2.80;;
66402;SDS011;53212;52.112;5.144;2022-07-29T22:41:11;9.60;;;3.00;;
66402;SDS011;53212;52.112;5.144;2022-07-29T22:43:38;5.10;;;2.70;;
66402;SDS011;53212;52.112;5.144;2022-07-29T22:46:06;5.20;;;3.00;;
66402;SDS011;53212;52.112;5.144;2022-07-29T22:48:33;8.70;;;3.50;;
66402;SDS011;53212;52.112;5.144;2022-07-29T22:50:59;6.80;;;2.80;;
66402;SDS011;53212;52.112;5.144;2022-07-29T22:53:25;4.30;;;2.10;;
66402;SDS011;53212;52.112;5.144;2022-07-29T22:55:51;6.20;;;2.80;;
66402;SDS011;53212;52.112;5.144;2022-07-29T22:58:16;6.00;;;3.10;;
66402;SDS011;53212;52.112;5.144;2022-07-29T23:00:42;6.10;;;3.00;;
66402;SDS011;53212;52.112;5.144;2022-07-29T23:03:08;3.80;;;2.90;;
66402;SDS011;53212;52.112;5.144;2022-07-29T23:05:33;6.40;;;2.90;;
66402;SDS011;53212;52.112;5.144;2022-07-29T23:07:59;11.20;;;3.20;;
66402;SDS011;53212;52.112;5.144;2022-07-29T23:10:25;9.30;;;3.70;;
66402;SDS011;53212;52.112;5.144;2022-07-29T23:12:51;9.90;;;3.60;;
66402;SDS011;53212;52.112;5.144;2022-07-29T23:15:17;9.50;;;3.10;;
66402;SDS011;53212;52.112;5.144;2022-07-29T23:17:42;5.80;;;2.90;;
66402;SDS011;53212;52.112;5.144;2022-07-29T23:20:08;5.50;;;3.10;;
66402;SDS011;53212;52.112;5.144;2022-07-29T23:22:35;6.90;;;3.10;;
66402;SDS011;53212;52.112;5.144;2022-07-29T23:25:03;9.10;;;3.60;;
66402;SDS011;53212;52.112;5.144;2022-07-29T23:27:31;8.60;;;3.50;;
66402;SDS011;53212;52.112;5.144;2022-07-29T23:29:57;4.60;;;3.10;;
66402;SDS011;53212;52.112;5.144;2022-07-29T23:32:23;8.60;;;3.10;;
66402;SDS011;53212;52.112;5.144;2022-07-29T23:34:49;3.60;;;2.30;;
66402;SDS011;53212;52.112;5.144;2022-07-29T23:37:14;6.60;;;2.80;;
66402;SDS011;53212;52.112;5.144;2022-07-29T23:39:40;8.10;;;2.30;;
66402;SDS011;53212;52.112;5.144;2022-07-29T23:42:05;6.00;;;2.40;;
66402;SDS011;53212;52.112;5.144;2022-07-29T23:44:31;6.70;;;3.00;;
66402;SDS011;53212;52.112;5.144;2022-07-29T23:46:57;8.70;;;3.30;;
66402;SDS011;53212;52.112;5.144;2022-07-29T23:49:22;11.00;;;3.60;;
66402;SDS011;53212;52.112;5.144;2022-07-29T23:51:48;8.70;;;3.50;;
66402;SDS011;53212;52.112;5.144;2022-07-29T23:54:14;4.90;;;3.30;;
66402;SDS011;53212;52.112;5.144;2022-07-29T23:56:39;8.80;;;3.40;;
66402;SDS011;53212;52.112;5.144;2022-07-29T23:59:05;7.80;;;3.30;;
